• Join FlightAware (Why Join?)
  • Login
  • US Flag 
06:47AM EDT


 

Airport Tracker/Info


-or-


 

Live Flight TrackerFlight Track Log ✈ JBU572 ✈ 22-Apr-2013 ✈ KPBI - KHPN

Flight Track Log - Related Links

Times and Time Zones

All times are in EDT time to prevent confusion due to time zone crossing. See the JBU572 flight status page for this flight to view local times or setup timezone preferences in your user account.

Time Position Orientation Groundspeed Altitude Reporting Facility
EDT Latitude Longitude Course Direction KTS MPH feet Rate Location/Type
08:24AM 26.8302 -80.1880 277° West  Level FlightAware Approximate
08:24AM 26.7775 -80.0003 336° Northwest 255 293 7,100  Level Miami Center
08:25AM 26.8589 -80.3211 336° Northwest  Level FlightAware Approximate
08:25AM 26.8203 -80.0572 310° West 224 258 9,800  Level Miami Center
08:26AM 26.9768 -80.3800 336° Northwest  Level FlightAware Approximate
08:26AM 26.8331 -80.1439 279° West 257 296 10,900  Level Miami Center
08:27AM 27.0947 -80.4390 336° Northwest  Level FlightAware Approximate
08:27AM 26.8514 -80.2492 281° West 311 358 12,900  Level Miami Center
08:28AM 27.2046 -80.5134 323° Northwest  Level FlightAware Approximate
08:28AM 26.8847 -80.3408 292° West 349 402 14,500  Level Miami Center
08:29AM 27.2961 -80.5814 336° Northwest  Level FlightAware Approximate
08:29AM 26.9775 -80.3903 335° Northwest 343 395 15,900  Level Miami Center
08:30AM 27.0953 -80.4381 340° North 371 427 17,900 1,740 Climbing Miami Center
08:31AM 27.1903 -80.4808 338° Northwest 395 455 19,400 1,500 Climbing Miami Center
08:32AM 27.3019 -80.5264 340° North 412 474 20,900 1,500 Climbing Miami Center
08:33AM 27.4178 -80.5744 340° North 425 489 22,400 2,160 Climbing Miami Center
08:34AM 27.5250 -80.6178 340° North 425 489 25,300 2,100 Climbing Miami Center
08:35AM 27.6303 -80.6633 339° North 413 475 26,600 1,200 Climbing Miami Center
08:36AM 27.7397 -80.7069 341° North 408 470 27,700 1,200 Climbing Miami Center
08:37AM 27.8514 -80.7528 340° North 413 475 29,000 1,140 Climbing Miami Center
08:38AM 27.9628 -80.7989 340° North 424 488 30,000 900 Climbing Miami Center
08:39AM 28.0783 -80.8478 340° North 429 494 30,800 840 Climbing Miami Center
08:40AM 28.1958 -80.8989 339° North 434 499 31,700 840 Climbing Miami Center
08:41AM 28.3133 -80.9503 339° North 439 505 32,500 660 Climbing Miami Center
08:42AM 28.4350 -80.9997 340° North 453 521 33,100 720 Climbing Miami Center
08:43AM 28.5586 -81.0539 339° North 464 534 34,000 900 Climbing Miami Center
08:44AM 28.6822 -81.1081 339° North 469 540 34,900 480 Climbing Miami Center
08:45AM 28.7975 -81.1417 346° North 469 540 35,000  Climbing Jacksonville Center
08:46AM 28.9294 -81.1703 349° North 469 540 35,000  Level Jacksonville Center
08:47AM 29.0592 -81.2036 347° North 477 549 35,000  Level Jacksonville Center
08:48AM 29.1911 -81.2322 349° North 477 549 35,000  Level Jacksonville Center
08:49AM 29.3208 -81.2658 347° North 477 549 35,000  Level Jacksonville Center
08:50AM 29.4506 -81.2947 349° North 472 543 35,000  Level Jacksonville Center
08:51AM 29.5911 -81.3306 348° North 467 537 35,000  Level Jacksonville Center
08:52AM 29.7167 -81.3622 348° North 467 537 35,000  Level Jacksonville Center
08:53AM 29.8422 -81.3911 349° North 467 537 35,000  Level Jacksonville Center
08:54AM 29.9700 -81.4228 348° North 467 537 35,000  Level Jacksonville Center
08:55AM 30.0725 -81.4478 348° North 467 537 35,000 -60 Level Jacksonville Center
08:56AM 30.2233 -81.4814 349° North 467 537 34,900 -60 Descending Jacksonville Center
08:57AM 30.3508 -81.5061 351° North 462 532 34,900  Level Jacksonville Center
08:58AM 30.4844 -81.5017 North 462 532 35,000  Climbing Jacksonville Center
08:59AM 30.6136 -81.4903 North 468 539 35,000  Level Jacksonville Center
09:00AM 30.7472 -81.4786 North 468 539 35,000  Level Jacksonville Center
09:01AM 30.8808 -81.4669 North 479 551 35,000  Level Jacksonville Center
09:02AM 31.0122 -81.4553 North 479 551 35,000  Level Jacksonville Center
09:03AM 31.1458 -81.4483 North 479 551 35,000  Level Jacksonville Center
09:04AM 31.2792 -81.4342 North 479 551 35,000  Level Jacksonville Center
09:05AM 31.4103 -81.3931 15° North 479 551 35,000  Level Jacksonville Center
09:06AM 31.5289 -81.3667 11° North 479 551 35,000  Level Jacksonville Center
09:07AM 31.6725 -81.3278 13° North 479 551 35,000  Level Jacksonville Center
09:08AM 31.8056 -81.2914 13° North 485 558 35,000  Level Jacksonville Center
09:09AM 31.9264 -81.2575 13° North 485 558 35,000  Level Jacksonville Center
09:10AM 32.0508 -81.2014 21° North 485 558 35,000  Level Jacksonville Center
09:11AM 32.1686 -81.1181 31° Northeast 485 558 35,000  Level Jacksonville Center
09:12AM 32.2817 -80.9956 42° Northeast 486 559 35,000  Level Jacksonville Center
09:13AM 32.3572 -80.8758 53° Northeast 476 548 35,000  Level Jacksonville Center
09:14AM 32.4428 -80.7436 52° Northeast 496 571 35,000  Level Jacksonville Center
09:15AM 32.5261 -80.6136 53° Northeast 501 577 35,000  Level Jacksonville Center
09:16AM 32.6111 -80.4806 53° Northeast 501 577 35,000  Level Jacksonville Center
09:17AM 32.6964 -80.3475 53° Northeast 501 577 35,000  Level Jacksonville Center
09:18AM 32.7833 -80.2142 52° Northeast 501 577 35,000  Level Jacksonville Center
09:19AM 32.8681 -80.0806 53° Northeast 501 577 35,000  Level Jacksonville Center
09:20AM 32.9800 -79.9508 44° Northeast 507 583 35,000  Level Jacksonville Center
09:21AM 33.0942 -79.8428 38° Northeast 512 589 35,000  Level Jacksonville Center
09:22AM 33.2022 -79.7400 39° Northeast 512 589 35,000  Level Jacksonville Center
09:23AM 33.3144 -79.6317 39° Northeast 512 589 35,000  Level Jacksonville Center
09:24AM 33.4261 -79.5228 39° Northeast 512 589 35,000  Level Jacksonville Center
09:25AM 33.5339 -79.4167 39° Northeast 512 589 35,000  Level Jacksonville Center
09:26AM 33.6436 -79.3050 40° Northeast 512 589 35,000  Level Jacksonville Center
09:27AM 33.7408 -79.2111 39° Northeast 503 579 35,000  Level Jacksonville Center
09:28AM 33.8525 -79.1014 39° Northeast 503 579 35,000  Level Jacksonville Center
09:29AM 33.9639 -78.9942 39° Northeast 510 587 35,000  Level Jacksonville Center
09:31AM 34.1622 -78.7944 40° Northeast 510 587 35,000  Level Washington Center
09:32AM 34.2844 -78.6733 39° Northeast 506 582 35,000  Level Washington Center
09:33AM 34.3958 -78.5619 40° Northeast 517 595 35,000  Level Washington Center
09:34AM 34.5092 -78.4475 40° Northeast 522 601 35,000  Level Washington Center
09:35AM 34.6203 -78.3353 40° Northeast 529 609 35,000  Level Washington Center
09:36AM 34.7333 -78.2203 40° Northeast 529 609 35,000  Level Washington Center
09:37AM 34.8317 -78.1122 42° Northeast 529 609 35,000  Level Washington Center
09:38AM 34.9425 -77.9992 40° Northeast 524 603 35,000  Level Washington Center
09:39AM 35.0575 -77.8808 40° Northeast 524 603 35,000  Level Washington Center
09:40AM 35.1703 -77.7669 40° Northeast 524 603 35,000  Level Washington Center
09:41AM 35.2786 -77.6503 41° Northeast 519 597 35,000  Level Washington Center
09:42AM 35.3956 -77.5336 39° Northeast 519 597 35,000  Level Washington Center
09:43AM 35.5161 -77.4319 34° Northeast 519 597 35,000  Level Washington Center
09:44AM 35.6344 -77.3300 35° Northeast 519 597 35,000  Level Washington Center
09:45AM 35.7547 -77.2225 36° Northeast 525 604 35,000  Level Washington Center
09:46AM 35.8856 -77.1072 36° Northeast 525 604 35,000  Level Washington Center
09:47AM 36.0058 -76.9964 37° Northeast 525 604 35,000  Level Washington Center
09:48AM 36.1281 -76.8881 36° Northeast 525 604 35,000  Level Washington Center
09:49AM 36.2483 -76.7819 35° Northeast 525 604 35,000  Level Washington Center
09:50AM 36.3703 -76.6728 36° Northeast 525 604 35,000  Level Washington Center
09:51AM 36.4922 -76.5661 35° Northeast 525 604 35,000  Level Washington Center
09:52AM 36.6119 -76.4589 36° Northeast 525 604 35,000  Level Washington Center
09:53AM 36.7336 -76.3461 37° Northeast 525 604 35,000  Level Washington Center
09:54AM 36.8553 -76.2356 36° Northeast 530 610 35,000  Level Washington Center
09:55AM 36.9914 -76.1483 27° Northeast 530 610 35,000  Level Washington Center
09:56AM 37.1314 -76.0764 22° Northeast 535 616 35,000  Level Washington Center
09:57AM 37.2694 -76.0042 23° Northeast 530 610 35,000  Level Washington Center
09:58AM 37.4072 -75.9292 23° Northeast 536 617 35,000  Level Washington Center
09:59AM 37.5472 -75.8511 24° Northeast 541 623 35,000 -60 Level Washington Center
10:00AM 37.6767 -75.7519 31° Northeast 535 616 34,900  Descending Washington Center
10:01AM 37.8081 -75.6575 30° Northeast 540 621 35,000  Climbing Washington Center
10:02AM 37.9417 -75.5575 31° Northeast 545 627 35,000  Level Washington Center
10:03AM 38.0750 -75.4600 30° Northeast 545 627 35,000  Level Washington Center
10:04AM 38.2083 -75.3725 27° Northeast 545 627 35,000 -60 Level Washington Center
10:05AM 38.3292 -75.2900 28° Northeast 540 621 34,900  Descending Washington Center
10:06AM 38.4664 -75.2072 25° Northeast 535 616 35,000  Climbing Washington Center
10:07AM 38.6039 -75.1161 27° Northeast 535 616 34,900  Descending Washington Center
10:08AM 38.7431 -75.0300 26° Northeast 540 621 35,000  Climbing Washington Center
10:09AM 38.8803 -74.9436 26° Northeast 545 627 34,900 -1,200 Descending Washington Center
10:10AM 39.0172 -74.8517 28° Northeast 545 627 32,700 -2,580 Descending Washington Center
10:11AM 39.1478 -74.7458 32° Northeast 545 627 29,800 -2,340 Descending Washington Center
10:12AM 39.2658 -74.6267 38° Northeast 550 633 28,100 -1,620 Descending Washington Center
10:14AM 39.4997 -74.3842 39° Northeast 497 572 24,700 -1,320 Descending New York Center
10:15AM 39.5967 -74.2814 39° Northeast 468 539 24,000 -960 Descending New York Center
10:16AM 39.6911 -74.1808 39° Northeast 448 516 22,900 -1,440 Descending New York Center
10:17AM 39.7858 -74.0828 38° Northeast 434 499 21,100 -1,500 Descending New York Center
10:18AM 39.8719 -73.9867 41° Northeast 420 483 20,000 -600 Descending New York Center
10:19AM 39.9619 -73.8933 38° Northeast 413 475 20,000 -120 Level New York Center
10:21AM 40.1492 -73.6914 39° Northeast 432 497 19,800 -540 Descending Boston Center
10:22AM 40.2503 -73.5847 39° Northeast 432 497 18,400 -1,440 Descending Boston Center
10:23AM 40.3367 -73.4936 39° Northeast 419 482 17,000 -720 Descending Boston Center
10:24AM 40.4372 -73.4353 24° Northeast 406 467 17,000  Level Boston Center
10:25AM 40.5228 -73.4039 16° North 390 449 17,000 -120 Level Boston Center
10:26AM 40.6333 -73.3667 14° North 397 457 16,800 -1,080 Descending New York TRACON
10:27AM 40.7500 -73.3167 18° North 379 436 15,000 -1,080 Descending New York TRACON
10:28AM 40.8167 -73.2667 30° Northeast 337 388 14,700 -1,380 Descending New York TRACON
10:29AM 40.8667 -73.1667 57° Northeast 338 389 12,300 -1,860 Descending New York TRACON
10:30AM 40.9000 -73.0667 66° East 315 362 11,000 -1,200 Descending New York TRACON
10:31AM 40.9500 -72.9667 56° Northeast 295 339 9,900 -1,260 Descending New York TRACON
10:32AM 41.0167 -72.9333 21° North 291 335 8,500 -1,620 Descending New York TRACON
10:33AM 41.0500 -73.0167 298° West 290 334 6,900 -1,500 Descending New York TRACON
10:34AM 41.0833 -73.1167 294° West 282 325 5,500 -1,440 Descending New York TRACON
10:35AM 41.1000 -73.2167 283° West 284 327 4,100 -780 Descending New York TRACON
10:36AM 41.1333 -73.3000 298° West 246 283 4,000 -60 Descending New York TRACON
10:37AM 41.1500 -73.3833 285° West 237 273 4,000 -480 Level New York TRACON
10:38AM 41.1667 -73.4667 285° West 248 285 3,100 -540 Descending New York TRACON
10:39AM 41.1833 -73.5500 285° West 222 255 3,000  Descending New York TRACON
10:40AM 41.2000 -73.6333 285° West 218 251 3,100 -480 Climbing New York TRACON
10:41AM 41.2167 -73.7167 285° West 220 253 2,100 -960 Descending New York TRACON